Etusivu
METAR-TAF:

METAR-TAF

Lentoasemat :

Gardermoenin lentoasema

Oslo, Norja

Leveyspiiri: 60-12N, Pituuspiiri: 011-05E, korkeus merenpinnasta: 208 m

Tämänhetkinen sää

Tämä raportti tehtiin 38 minuuttia sitten, kello 03.50 UTC
Tuuli 8 kn etelästä/lounaasta
Lämpötila 12°C
Kosteus 67%
Ilmanpaine 1001 hPa
Näkyvyys 10 km tai enemmän
ei pilviä alle 1500 m:ssä eikä cumulonimbus-pilviä

METAR: ENGM 190350Z 21008KT CAVOK 12/06 Q1001 NOSIG

Aika: 06:28 (04:28 UTC)

Sääennuste

Ennuste voimassa 19. päivästä klo 00 UTC - 19. päivään klo 24 UTC
Tuuli 12 kn etelästä
Näkyvyys 10 km tai enemmän
Hajanaisia pilviä 4000 ft:n korkeudessa
Tulossa
19. päivästä klo 00 UTC - 19. päivään klo 02 UTC
Tuuli 10 kn lännestä
Ajoittain
19. päivästä klo 12 UTC - 19. päivään klo 16 UTC
Tuuli 15 kn lännestä/lounaasta puuskistuen 25 kn:hen

TAF: ENGM 1900/1924 19012KT 9999 SCT040 BECMG 1900/1902 27010KT TEMPO 1912/1916 25015G25KT

Säähavainnot ja -ennusteet yli 4000 lentoasemalta (METAR- ja TAF-raportit).

Käytössä olevat sääasemat on merkitty karttaan keltaisilla ja punaisilla pisteillä.

Aseta hiiri pisteen päälle nähdäksesi sääaseman nimen.

Klikkaa sitten nähdäksesi säähavainnot ja -ennusteet.

Kartan vaihtaminen: klikkaa mustalla rastilla varustettuja vihreitä pisteitä, niin voit zoomata sisään; viivalla varustettua vihreää pistettä, niin voit zoomata ulos tai vihreitä nuolia, niin pääset viereisille kartoille.


METAR-TAF: